Time;durP1;ratioP1;P1;durP2;ratioP2;P2;SDS_P1;SDS_P2;PMS_P1;PMS_P2;Temp;Humidity;BMP_temperature;BMP_pressure;BME280_temperature;BME280_humidity;BME280_pressure;Samples;Min_cycle;Max_cycle;Signal;HPM_P1;HPM_P2
2022/03/22 00:02:07;;;;;;;40.80;27.55;;;7.10;99.90;;;;;;2132018;67;20344;-73
2022/03/22 00:04:49;;;;;;;36.43;27.03;;;7.10;99.90;;;;;;2131170;67;20254;-73
2022/03/22 00:07:31;;;;;;;37.20;26.38;;;7.00;99.90;;;;;;2131034;67;20682;-73
2022/03/22 00:10:14;;;;;;;38.70;27.73;;;7.10;99.90;;;;;;2138178;67;21037;-74
2022/03/22 00:12:56;;;;;;;38.67;29.35;;;7.00;99.90;;;;;;2129943;67;20333;-74
2022/03/22 00:15:42;;;;;;;34.45;25.25;;;7.00;99.90;;;;;;2123358;67;20314;-74
2022/03/22 00:18:29;;;;;;;39.70;27.35;;;7.00;99.90;;;;;;2116088;67;20198;-72
2022/03/22 00:21:19;;;;;;;37.22;27.88;;;7.00;99.90;;;;;;2123921;67;20252;-72
2022/03/22 00:24:02;;;;;;;35.88;26.50;;;7.00;99.90;;;;;;2131673;67;20742;-73
2022/03/22 00:26:44;;;;;;;37.53;28.30;;;6.90;99.90;;;;;;2130611;67;20267;-73
2022/03/22 00:29:27;;;;;;;36.22;26.95;;;6.90;99.90;;;;;;2129541;67;20175;-73
2022/03/22 00:32:12;;;;;;;38.75;27.92;;;6.90;99.90;;;;;;2123650;67;20815;-72
2022/03/22 00:34:54;;;;;;;34.83;27.40;;;6.90;99.90;;;;;;2118217;67;20353;-73
2022/03/22 00:37:43;;;;;;;37.75;26.15;;;6.90;99.90;;;;;;2118244;67;20249;-74
2022/03/22 00:40:26;;;;;;;43.72;27.83;;;6.90;99.90;;;;;;2109440;67;20268;-73
2022/03/22 00:43:14;;;;;;;36.88;29.30;;;6.90;99.90;;;;;;2113170;67;20203;-73
2022/03/22 00:45:58;;;;;;;39.08;27.08;;;6.90;99.90;;;;;;2117626;67;20504;-73
2022/03/22 00:48:42;;;;;;;39.58;27.90;;;6.80;99.90;;;;;;2137763;67;20175;-74
2022/03/22 00:51:27;;;;;;;37.92;27.42;;;6.80;99.90;;;;;;2132169;67;20234;-73
2022/03/22 00:54:08;;;;;;;35.90;27.75;;;6.80;99.90;;;;;;2151461;66;20173;-72
2022/03/22 00:56:54;;;;;;;38.85;26.13;;;6.80;99.90;;;;;;2159573;66;20335;-72
2022/03/22 01:02:40;;;;;;;36.85;27.40;;;6.80;99.90;;;;;;2162414;66;20288;-73
2022/03/22 01:05:24;;;;;;;39.92;27.73;;;6.80;99.90;;;;;;2160879;66;20864;-72
2022/03/22 01:08:10;;;;;;;39.53;28.58;;;6.80;99.90;;;;;;2153986;66;20332;-72
2022/03/22 01:10:52;;;;;;;34.33;26.58;;;6.80;99.90;;;;;;2147431;66;20397;-73
2022/03/22 01:13:36;;;;;;;37.05;27.20;;;6.80;99.90;;;;;;2156255;66;20274;-73
2022/03/22 01:16:21;;;;;;;40.72;28.25;;;6.80;99.90;;;;;;2149476;66;20316;-73
2022/03/22 01:19:10;;;;;;;36.63;27.57;;;6.80;99.90;;;;;;2148466;66;20202;-73
2022/03/22 01:21:52;;;;;;;38.75;27.52;;;6.80;99.90;;;;;;2151276;66;20269;-74
2022/03/22 01:24:36;;;;;;;41.53;28.77;;;6.80;99.90;;;;;;2148432;66;20252;-74
2022/03/22 01:27:22;;;;;;;;;;;6.80;99.90;;;;;;2133480;67;20724;-73
2022/03/22 01:30:12;;;;;;;39.87;26.70;;;6.70;99.90;;;;;;2141947;66;20212;-73
2022/03/22 01:32:55;;;;;;;36.85;28.40;;;6.70;99.90;;;;;;2144685;66;20507;-73
2022/03/22 01:35:41;;;;;;;37.42;26.55;;;6.70;99.90;;;;;;2149257;66;20677;-73
2022/03/22 01:38:25;;;;;;;36.75;26.92;;;6.80;99.90;;;;;;2138641;66;20673;-74
2022/03/22 01:41:07;;;;;;;40.47;27.63;;;6.80;99.90;;;;;;2138416;66;20341;-72
2022/03/22 01:43:50;;;;;;;39.92;28.67;;;6.80;99.90;;;;;;2144143;66;20784;-72
2022/03/22 01:46:35;;;;;;;42.45;28.20;;;6.80;99.90;;;;;;2135738;67;20171;-72
2022/03/22 01:49:19;;;;;;;37.78;28.23;;;6.80;99.90;;;;;;2122883;67;20767;-72
2022/03/22 01:52:03;;;;;;;38.28;27.98;;;6.80;99.90;;;;;;2123267;67;20656;-72
2022/03/22 01:54:50;;;;;;;39.63;28.67;;;6.80;99.90;;;;;;2115632;67;20460;-71
2022/03/22 01:57:33;;;;;;;40.22;26.92;;;6.80;99.90;;;;;;2119320;67;20214;-73
2022/03/22 02:00:17;;;;;;;39.05;30.38;;;6.80;99.90;;;;;;2145419;66;20315;-72
2022/03/22 02:06:02;;;;;;;39.85;29.52;;;6.80;99.90;;;;;;2124621;67;20585;-72
2022/03/22 02:08:47;;;;;;;40.90;29.55;;;6.80;99.90;;;;;;2126244;67;20293;-72
2022/03/22 02:11:32;;;;;;;38.17;28.27;;;6.80;99.90;;;;;;2132926;67;20328;-72
2022/03/22 02:14:14;;;;;;;41.40;29.80;;;6.70;99.90;;;;;;2139476;66;20262;-73
2022/03/22 02:16:58;;;;;;;40.45;28.38;;;6.80;99.90;;;;;;2145950;66;20350;-72
2022/03/22 02:19:42;;;;;;;;;;;6.80;99.90;;;;;;2139222;66;20226;-73
2022/03/22 02:22:34;;;;;;;41.05;28.40;;;6.80;99.90;;;;;;2131595;67;20147;-74
2022/03/22 02:25:16;;;;;;;42.92;29.25;;;6.80;99.90;;;;;;2121219;67;20470;-72
2022/03/22 02:27:59;;;;;;;39.97;27.45;;;6.80;99.90;;;;;;2137054;66;20712;-72
2022/03/22 02:30:45;;;;;;;44.60;29.35;;;6.90;99.90;;;;;;2143921;66;20196;-72
2022/03/22 02:33:27;;;;;;;44.63;28.77;;;6.90;99.90;;;;;;2124252;67;20295;-72
2022/03/22 02:36:10;;;;;;;41.80;28.17;;;7.00;99.90;;;;;;2118309;67;20923;-72
2022/03/22 02:38:53;;;;;;;42.33;29.00;;;7.10;99.90;;;;;;2130628;67;20224;-72
2022/03/22 02:41:42;;;;;;;42.20;29.42;;;7.20;99.90;;;;;;2124072;67;20202;-72
2022/03/22 02:44:27;;;;;;;38.25;28.92;;;7.20;99.90;;;;;;2125716;67;20691;-73
2022/03/22 02:47:13;;;;;;;39.30;29.95;;;7.20;99.90;;;;;;2118716;67;20269;-73
2022/03/22 02:49:59;;;;;;;39.38;29.75;;;7.20;99.90;;;;;;2118938;67;20372;-72
2022/03/22 02:52:41;;;;;;;41.67;28.50;;;7.10;99.90;;;;;;2125481;67;20208;-73
2022/03/22 02:55:24;;;;;;;40.40;30.90;;;7.10;99.90;;;;;;2118310;67;20296;-72
2022/03/22 02:58:06;;;;;;;39.75;28.90;;;7.10;99.90;;;;;;2111607;67;20211;-72
2022/03/22 03:00:48;;;;;;;38.40;29.95;;;7.00;99.90;;;;;;2123085;67;20184;-72
2022/03/22 03:03:32;;;;;;;40.15;28.40;;;7.00;99.90;;;;;;2123094;67;20364;-72
2022/03/22 03:06:19;;;;;;;40.35;28.42;;;6.90;99.90;;;;;;2117130;67;20802;-72
2022/03/22 03:09:05;;;;;;;41.15;28.42;;;6.90;99.90;;;;;;2101197;67;20814;-73
2022/03/22 03:11:50;;;;;;;38.20;28.83;;;6.90;99.90;;;;;;2110419;67;20380;-73
2022/03/22 03:14:41;;;;;;;44.45;30.33;;;6.90;99.90;;;;;;2113399;67;20375;-73
2022/03/22 03:17:23;;;;;;;37.55;27.23;;;6.90;99.90;;;;;;2111785;67;20263;-72
2022/03/22 03:20:10;;;;;;;42.55;30.00;;;6.80;99.90;;;;;;2107784;67;20254;-72
2022/03/22 03:22:53;;;;;;;38.63;28.80;;;6.80;99.90;;;;;;2109472;67;20241;-73
2022/03/22 03:25:36;;;;;;;38.50;28.25;;;6.70;99.90;;;;;;2110489;67;20378;-72
2022/03/22 03:28:18;;;;;;;39.05;29.23;;;6.70;99.90;;;;;;2109501;67;20225;-72
2022/03/22 03:31:00;;;;;;;45.00;30.20;;;6.70;99.90;;;;;;2117911;67;20409;-72
2022/03/22 03:33:54;;;;;;;41.55;29.63;;;6.70;99.90;;;;;;2118320;67;20332;-71
2022/03/22 03:36:41;;;;;;;41.20;29.27;;;6.70;99.90;;;;;;2132825;66;20586;-72
2022/03/22 03:39:27;;;;;;;38.85;29.48;;;6.70;99.90;;;;;;2140050;66;20186;-74
2022/03/22 03:42:10;;;;;;;40.40;29.35;;;6.70;99.90;;;;;;2148482;66;20291;-73
2022/03/22 03:47:55;;;;;;;38.78;29.17;;;6.70;99.90;;;;;;2134362;67;20690;-71
2022/03/22 03:50:38;;;;;;;40.85;29.90;;;6.70;99.90;;;;;;2126044;67;20381;-71
2022/03/22 03:53:23;;;;;;;43.70;31.65;;;6.70;99.90;;;;;;2131254;67;20848;-72
2022/03/22 03:56:08;;;;;;;41.53;29.08;;;6.60;99.90;;;;;;2144787;66;20449;-72
2022/03/22 03:58:51;;;;;;;42.63;29.70;;;6.60;99.90;;;;;;2129645;67;20399;-72
2022/03/22 04:01:33;;;;;;;39.40;28.33;;;6.60;99.90;;;;;;2119019;67;20184;-71
2022/03/22 04:04:17;;;;;;;40.08;29.33;;;6.60;99.90;;;;;;2119819;67;21219;-73
2022/03/22 04:07:01;;;;;;;;;;;6.50;99.90;;;;;;2121468;67;20256;-74
2022/03/22 04:09:44;;;;;;;38.42;27.38;;;6.50;99.90;;;;;;2113512;67;20193;-72
2022/03/22 04:12:27;;;;;;;45.95;29.42;;;6.50;99.90;;;;;;2105870;67;20220;-71
2022/03/22 04:15:09;;;;;;;45.08;30.85;;;6.50;99.90;;;;;;2118325;67;20248;-73
2022/03/22 04:17:52;;;;;;;44.58;30.50;;;6.50;99.90;;;;;;2125352;67;20413;-73
2022/03/22 04:20:35;;;;;;;43.67;29.77;;;6.50;99.90;;;;;;2131908;67;20687;-73
2022/03/22 04:23:20;;;;;;;44.38;30.75;;;6.50;99.90;;;;;;2124062;67;20224;-73
2022/03/22 04:26:02;;;;;;;42.42;30.20;;;6.50;99.90;;;;;;2123655;67;20624;-72
2022/03/22 04:34:46;;;;;;;44.60;29.98;;;6.40;99.90;;;;;;2116916;67;20758;-72
2022/03/22 04:37:28;;;;;;;43.25;29.65;;;6.40;99.90;;;;;;2119048;67;20223;-71
2022/03/22 04:40:12;;;;;;;41.78;29.35;;;6.40;99.90;;;;;;2124295;67;20273;-72
2022/03/22 04:42:55;;;;;;;38.75;29.52;;;6.40;99.90;;;;;;2131948;67;20187;-70
2022/03/22 04:45:38;;;;;;;39.35;28.75;;;6.30;99.90;;;;;;2140516;66;20230;-72
2022/03/22 04:48:20;;;;;;;39.55;28.92;;;6.40;99.90;;;;;;2130095;67;20303;-73
2022/03/22 04:57:04;;;;;;;38.97;28.27;;;6.30;99.90;;;;;;2123907;67;20256;-73
2022/03/22 04:59:47;;;;;;;40.33;29.38;;;6.20;99.90;;;;;;2130623;67;20259;-73
2022/03/22 05:02:33;;;;;;;42.15;29.08;;;6.20;99.90;;;;;;2128625;67;20209;-73
2022/03/22 05:05:15;;;;;;;41.05;28.30;;;6.20;99.90;;;;;;2137584;66;20230;-72
2022/03/22 05:07:58;;;;;;;44.00;30.60;;;6.20;99.90;;;;;;2130759;67;20738;-72
2022/03/22 05:10:40;;;;;;;41.00;29.73;;;6.20;99.90;;;;;;2120813;67;20301;-72
2022/03/22 05:13:22;;;;;;;43.28;30.85;;;6.10;99.90;;;;;;2129307;67;20175;-72
2022/03/22 05:16:04;;;;;;;41.30;28.67;;;6.20;99.90;;;;;;2136378;66;20335;-72
2022/03/22 05:18:48;;;;;;;39.65;30.92;;;6.10;99.90;;;;;;2124121;67;20197;-71
2022/03/22 05:21:34;;;;;;;41.20;28.75;;;6.10;99.90;;;;;;2114761;67;20407;-73
2022/03/22 05:24:22;;;;;;;43.53;30.30;;;6.10;99.90;;;;;;2116884;67;20351;-72
2022/03/22 05:27:06;;;;;;;43.83;29.25;;;6.10;99.90;;;;;;2130152;67;20168;-73
2022/03/22 05:29:50;;;;;;;43.15;30.88;;;6.10;99.90;;;;;;2144276;66;20332;-73
2022/03/22 05:32:33;;;;;;;44.15;30.13;;;6.10;99.90;;;;;;2163660;66;20220;-71
2022/03/22 05:35:18;;;;;;;39.83;28.65;;;6.10;99.90;;;;;;2166415;65;20714;-71
2022/03/22 05:38:02;;;;;;;43.58;29.13;;;6.10;99.90;;;;;;2164300;65;20213;-72
2022/03/22 05:40:47;;;;;;;40.78;29.25;;;6.10;99.90;;;;;;2144219;66;20204;-71
2022/03/22 05:43:30;;;;;;;39.97;27.98;;;6.10;99.90;;;;;;2146525;66;20416;-72
2022/03/22 05:46:16;;;;;;;41.95;29.42;;;6.20;99.90;;;;;;2132528;67;20326;-73
2022/03/22 05:48:59;;;;;;;44.22;29.80;;;6.10;99.90;;;;;;2134140;67;20904;-73
2022/03/22 05:51:41;;;;;;;40.90;29.85;;;6.10;99.90;;;;;;2140670;66;20511;-72
2022/03/22 05:54:24;;;;;;;43.53;30.92;;;6.20;99.90;;;;;;2147649;66;21076;-71
2022/03/22 05:57:07;;;;;;;40.50;29.48;;;6.20;99.90;;;;;;2125227;67;20836;-73
2022/03/22 05:59:49;;;;;;;42.72;29.08;;;6.20;99.90;;;;;;2130458;67;20171;-70
2022/03/22 06:02:38;;;;;;;43.83;29.10;;;6.20;99.90;;;;;;2138185;67;20466;-73
2022/03/22 06:05:22;;;;;;;41.45;28.35;;;6.20;99.90;;;;;;2132101;67;20191;-72
2022/03/22 06:08:05;;;;;;;39.40;29.17;;;6.20;99.90;;;;;;2124208;67;20275;-72
2022/03/22 06:10:49;;;;;;;39.75;28.85;;;6.20;99.90;;;;;;2132120;67;20395;-73
2022/03/22 06:13:31;;;;;;;42.03;29.50;;;6.20;99.90;;;;;;2139216;66;20182;-72
2022/03/22 06:16:16;;;;;;;42.08;29.48;;;6.20;99.90;;;;;;2139683;66;20323;-72
2022/03/22 06:19:00;;;;;;;41.83;28.90;;;6.30;99.90;;;;;;2153633;66;20310;-72
2022/03/22 06:21:45;;;;;;;40.20;28.13;;;6.40;99.90;;;;;;2160208;66;20782;-72
2022/03/22 06:24:29;;;;;;;46.47;30.50;;;6.40;99.90;;;;;;2146222;66;20277;-72
2022/03/22 06:27:17;;;;;;;42.97;29.58;;;6.50;99.90;;;;;;2147684;66;20826;-72
2022/03/22 06:30:00;;;;;;;;;;;6.60;99.90;;;;;;2155014;66;20205;-72
2022/03/22 06:32:54;;;;;;;42.47;29.20;;;6.60;99.90;;;;;;2151480;66;20110;-72
2022/03/22 06:35:37;;;;;;;40.95;29.17;;;6.60;99.90;;;;;;2126696;67;20238;-72
2022/03/22 06:38:22;;;;;;;38.80;28.77;;;6.70;99.90;;;;;;2131552;67;20367;-73
2022/03/22 06:41:04;;;;;;;40.58;29.77;;;6.70;99.90;;;;;;2129586;67;20260;-74
2022/03/22 06:43:47;;;;;;;41.80;29.65;;;6.80;99.90;;;;;;2129597;67;20172;-72
2022/03/22 06:46:34;;;;;;;41.42;29.42;;;6.80;99.90;;;;;;2138969;66;20370;-72
2022/03/22 06:49:19;;;;;;;42.90;29.45;;;6.90;99.90;;;;;;2125416;67;20353;-73
2022/03/22 06:52:03;;;;;;;38.55;28.10;;;6.90;99.90;;;;;;2115384;67;20308;-72
2022/03/22 06:54:46;;;;;;;41.97;28.95;;;7.00;99.90;;;;;;2110471;67;20287;-74
2022/03/22 06:57:28;;;;;;;45.47;29.33;;;7.10;99.90;;;;;;2124416;67;20256;-73
2022/03/22 07:00:15;;;;;;;41.53;29.23;;;7.10;99.90;;;;;;2124191;67;20244;-74
2022/03/22 07:03:00;;;;;;;39.45;27.83;;;7.20;99.90;;;;;;2124471;67;20286;-73
2022/03/22 07:05:45;;;;;;;;;;;7.20;99.90;;;;;;2124876;67;20805;-74
2022/03/22 07:08:32;;;;;;;42.50;29.08;;;7.30;99.90;;;;;;2124206;67;20056;-73
2022/03/22 07:14:25;;;;;;;43.15;29.48;;;7.60;99.90;;;;;;2127246;67;20252;-73
2022/03/22 07:17:08;;;;;;;43.65;29.45;;;7.70;99.90;;;;;;2132933;67;20344;-74
2022/03/22 07:19:53;;;;;;;45.08;29.25;;;7.80;99.90;;;;;;2138215;66;20699;-73
2022/03/22 07:22:38;;;;;;;39.70;27.65;;;8.00;99.90;;;;;;2150437;66;20524;-73
2022/03/22 07:25:24;;;;;;;44.83;28.80;;;8.10;99.90;;;;;;2153332;66;20299;-74
2022/03/22 07:28:10;;;;;;;36.78;27.50;;;8.20;99.90;;;;;;2148575;66;20334;-73
2022/03/22 07:30:58;;;;;;;41.33;28.08;;;8.20;99.90;;;;;;2147532;66;20866;-72
2022/03/22 07:33:41;;;;;;;39.03;28.45;;;8.20;99.90;;;;;;2149882;66;20347;-73
2022/03/22 07:36:23;;;;;;;38.25;28.35;;;8.20;99.90;;;;;;2138884;67;20347;-73
2022/03/22 07:39:08;;;;;;;40.85;27.33;;;8.30;99.90;;;;;;2132589;67;20202;-73
2022/03/22 07:41:51;;;;;;;;;;;8.30;99.90;;;;;;2139579;66;20738;-73
2022/03/22 07:44:33;;;;;;;35.10;25.10;;;8.30;99.90;;;;;;2150786;66;20276;-73
2022/03/22 07:47:18;;;;;;;41.35;28.67;;;8.40;99.90;;;;;;2145235;66;20299;-73
2022/03/22 07:53:07;;;;;;;33.83;26.05;;;8.50;99.90;;;;;;2129796;67;20335;-74
2022/03/22 07:55:51;;;;;;;38.47;25.98;;;8.70;99.90;;;;;;2134539;66;20325;-74
2022/03/22 07:58:36;;;;;;;36.33;25.77;;;8.80;99.90;;;;;;2128301;67;20274;-79
2022/03/22 08:01:18;;;;;;;39.08;26.38;;;8.90;99.90;;;;;;2134312;66;20247;-78
2022/03/22 08:04:00;;;;;;;34.92;25.90;;;9.10;99.90;;;;;;2132705;66;20582;-77
2022/03/22 08:06:42;;;;;;;37.03;25.63;;;9.20;99.90;;;;;;2138681;66;20276;-78
2022/03/22 08:09:24;;;;;;;35.38;24.63;;;9.50;99.90;;;;;;2131904;67;20250;-79
2022/03/22 08:12:11;;;;;;;38.30;27.60;;;9.70;99.90;;;;;;2135193;67;20277;-78
2022/03/22 08:14:53;;;;;;;44.05;26.20;;;9.90;99.90;;;;;;2126675;67;20381;-78
2022/03/22 08:17:59;;;;;;;33.35;23.92;;;10.10;99.90;;;;;;2125246;67;20196;-78
2022/03/22 08:20:44;;;;;;;43.40;24.83;;;10.30;99.90;;;;;;2123520;67;20213;-77
2022/03/22 08:23:27;;;;;;;33.47;22.58;;;10.50;99.90;;;;;;2126510;67;20269;-77
2022/03/22 08:26:10;;;;;;;32.40;23.58;;;10.70;99.90;;;;;;2125651;67;20372;-79
2022/03/22 08:28:53;;;;;;;34.05;22.45;;;10.80;99.90;;;;;;2134015;66;20377;-76
2022/03/22 08:31:37;;;;;;;34.15;23.98;;;10.80;99.90;;;;;;2130784;67;20826;-77
2022/03/22 08:34:22;;;;;;;33.47;22.45;;;10.90;99.90;;;;;;2130755;67;20410;-76
2022/03/22 08:37:06;;;;;;;32.97;22.73;;;11.00;99.90;;;;;;2129905;67;20191;-75
2022/03/22 08:39:53;;;;;;;32.13;23.65;;;11.10;99.90;;;;;;2131322;67;20413;-76
2022/03/22 08:42:41;;;;;;;29.35;23.17;;;11.20;99.90;;;;;;2114758;67;20296;-76
2022/03/22 08:45:25;;;;;;;30.83;22.40;;;11.30;99.90;;;;;;2116435;67;20225;-78
2022/03/22 08:48:11;;;;;;;31.42;23.77;;;11.40;99.90;;;;;;2114988;67;20281;-77
2022/03/22 08:50:53;;;;;;;28.48;22.83;;;11.50;99.90;;;;;;2120389;67;20712;-78
2022/03/22 08:53:35;;;;;;;31.48;22.08;;;11.70;99.60;;;;;;2120782;67;20772;-77
2022/03/22 08:56:18;;;;;;;33.83;23.98;;;11.80;98.80;;;;;;2116966;67;20226;-78
2022/03/22 08:59:03;;;;;;;32.38;22.48;;;12.00;97.90;;;;;;2097440;68;20278;-76
2022/03/22 09:01:45;;;;;;;33.95;24.05;;;12.20;97.10;;;;;;2102853;68;20190;-76
2022/03/22 09:07:29;;;;;;;34.70;23.05;;;12.40;95.90;;;;;;2087089;68;20862;-75
2022/03/22 09:10:14;;;;;;;30.17;22.48;;;12.50;95.20;;;;;;2088493;68;20599;-75
2022/03/22 09:12:57;;;;;;;28.90;23.27;;;12.60;94.40;;;;;;2088440;68;20625;-75
2022/03/22 09:15:40;;;;;;;27.88;21.20;;;12.70;94.00;;;;;;2089953;67;20455;-75
2022/03/22 09:18:22;;;;;;;29.30;21.38;;;12.90;93.70;;;;;;2094942;68;20187;-77
2022/03/22 09:21:05;;;;;;;31.67;21.55;;;13.00;93.40;;;;;;2092245;68;20722;-74
2022/03/22 09:24:03;;;;;;;31.52;22.83;;;13.10;92.80;;;;;;2086714;68;20316;-76
2022/03/22 09:26:50;;;;;;;29.38;23.60;;;13.10;92.60;;;;;;2077528;68;20802;-75
2022/03/22 09:29:43;;;;;;;31.63;22.67;;;13.20;92.10;;;;;;2082342;68;20288;-78
2022/03/22 09:32:29;;;;;;;35.47;23.05;;;13.40;91.80;;;;;;2085139;68;20414;-77
2022/03/22 09:35:19;;;;;;;32.47;23.15;;;13.40;91.50;;;;;;2084710;68;20183;-76
2022/03/22 09:38:04;;;;;;;28.35;20.95;;;13.50;91.30;;;;;;2092966;68;20188;-74
2022/03/22 09:40:45;;;;;;;31.75;22.95;;;13.60;90.50;;;;;;2091090;68;20595;-75
2022/03/22 09:43:33;;;;;;;35.10;23.15;;;13.70;89.80;;;;;;2096118;68;20227;-76
2022/03/22 09:46:19;;;;;;;30.73;22.65;;;13.80;89.00;;;;;;2095116;68;20713;-76
2022/03/22 09:49:04;;;;;;;28.60;23.77;;;13.90;88.40;;;;;;2092499;68;20327;-75
2022/03/22 09:51:48;;;;;;;31.10;23.73;;;14.00;88.50;;;;;;2104055;67;20204;-76
2022/03/22 09:54:32;;;;;;;31.92;23.40;;;14.10;88.70;;;;;;2109702;67;20682;-76
2022/03/22 09:57:16;;;;;;;29.55;21.88;;;14.20;88.90;;;;;;2100832;68;20350;-75
2022/03/22 10:00:01;;;;;;;33.00;22.83;;;14.30;88.20;;;;;;2096437;68;20466;-77
2022/03/22 10:02:45;;;;;;;28.70;21.30;;;14.40;86.90;;;;;;2091225;68;20340;-77
2022/03/22 10:05:29;;;;;;;26.30;20.80;;;14.50;85.40;;;;;;2095475;68;20220;-78
2022/03/22 10:08:11;;;;;;;26.75;20.55;;;14.60;84.40;;;;;;2102265;67;20182;-79
2022/03/22 10:11:01;;;;;;;30.50;22.63;;;14.70;83.50;;;;;;2102661;67;20181;-77
2022/03/22 10:13:54;;;;;;;29.63;21.73;;;14.70;82.20;;;;;;2104386;67;20383;-76
2022/03/22 10:16:51;;;;;;;30.05;21.55;;;14.90;82.00;;;;;;2102250;67;20896;-78
2022/03/22 10:19:34;;;;;;;28.02;22.00;;;15.00;81.40;;;;;;2114497;67;20289;-77
2022/03/22 10:22:27;;;;;;;33.30;23.00;;;15.10;81.00;;;;;;2125673;66;20882;-76
2022/03/22 10:25:11;;;;;;;30.88;23.52;;;15.30;80.50;;;;;;2134757;66;21199;-75
2022/03/22 10:27:57;;;;;;;31.67;22.83;;;15.50;79.40;;;;;;2137965;66;20694;-75
2022/03/22 10:30:57;;;;;;;31.55;22.42;;;15.60;78.50;;;;;;2130698;67;20341;-76
2022/03/22 10:33:52;;;;;;;32.40;23.58;;;15.80;78.00;;;;;;2115968;67;20554;-78
2022/03/22 10:36:42;;;;;;;28.63;21.13;;;15.90;77.90;;;;;;2112528;67;20228;-78
2022/03/22 10:39:28;;;;;;;28.65;21.80;;;16.10;77.40;;;;;;2117453;67;20378;-77
2022/03/22 10:42:11;;;;;;;26.58;20.27;;;16.30;75.80;;;;;;2118987;67;20293;-77
2022/03/22 10:44:59;;;;;;;26.60;20.30;;;16.50;75.10;;;;;;2117167;67;20203;-76
2022/03/22 10:47:41;;;;;;;28.83;19.90;;;16.80;74.40;;;;;;2118290;67;20201;-76
2022/03/22 10:50:23;;;;;;;30.30;20.55;;;17.10;73.90;;;;;;2116556;67;20254;-74
2022/03/22 10:53:06;;;;;;;29.95;21.13;;;17.40;74.00;;;;;;2120492;67;20231;-75
2022/03/22 10:55:49;;;;;;;27.95;20.55;;;17.80;73.00;;;;;;2140884;66;20366;-76
2022/03/22 10:58:36;;;;;;;30.20;21.27;;;18.10;71.80;;;;;;2130215;67;20188;-75
2022/03/22 11:01:20;;;;;;;29.02;19.95;;;18.40;70.80;;;;;;2117774;67;20200;-76
2022/03/22 11:04:06;;;;;;;25.58;19.63;;;18.70;69.50;;;;;;2125874;67;20429;-76
2022/03/22 11:06:48;;;;;;;24.73;18.50;;;19.10;67.90;;;;;;2138899;66;20179;-76
2022/03/22 11:09:31;;;;;;;22.60;17.45;;;19.50;65.40;;;;;;2130981;67;20769;-75
2022/03/22 11:12:15;;;;;;;26.00;18.35;;;19.90;63.80;;;;;;2125323;67;20243;-76
2022/03/22 11:14:59;;;;;;;22.17;17.45;;;20.30;62.10;;;;;;2131231;67;20204;-76
2022/03/22 11:17:49;;;;;;;27.70;18.63;;;20.80;59.90;;;;;;2138141;67;20265;-77
2022/03/22 11:20:33;;;;;;;23.45;17.38;;;21.10;57.50;;;;;;2131165;67;20205;-76
2022/03/22 11:23:23;;;;;;;24.58;18.83;;;21.50;56.20;;;;;;2129089;67;20420;-76
2022/03/22 11:26:17;;;;;;;25.60;18.98;;;22.00;55.10;;;;;;2133045;67;20806;-77
2022/03/22 11:29:05;;;;;;;21.52;17.75;;;22.40;54.10;;;;;;2126774;67;20389;-77
2022/03/22 11:34:53;;;;;;;25.40;17.85;;;23.30;51.80;;;;;;2123808;67;20176;-76
2022/03/22 11:37:36;;;;;;;24.80;18.90;;;23.70;49.70;;;;;;2125583;67;20835;-76
2022/03/22 11:43:22;;;;;;;25.55;18.25;;;24.30;47.50;;;;;;1540684;67;39076003;-77
2022/03/22 11:46:10;;;;;;;23.48;19.33;;;24.70;47.40;;;;;;2107569;67;20240;-79
2022/03/22 11:48:54;;;;;;;22.33;19.27;;;25.10;45.90;;;;;;2097407;67;20343;-75
2022/03/22 11:52:18;;;;;;;21.52;19.27;;;25.40;45.40;;;;;;2106544;67;20563;-78
2022/03/22 11:55:15;;;;;;;20.58;18.15;;;25.80;45.80;;;;;;2097015;68;20384;-79
2022/03/22 11:58:10;;;;;;;22.35;18.88;;;26.10;44.20;;;;;;2103392;68;20298;-77
2022/03/22 12:00:57;;;;;;;24.27;18.90;;;26.40;43.60;;;;;;2108470;67;20202;-77
2022/03/22 12:03:48;;;;;;;22.65;18.83;;;26.60;43.10;;;;;;2103920;67;20329;-77
2022/03/22 12:06:33;;;;;;;25.83;20.08;;;26.90;42.10;;;;;;2111850;67;20906;-77
2022/03/22 12:09:18;;;;;;;24.90;20.10;;;27.20;41.80;;;;;;2115209;67;20200;-77
2022/03/22 12:12:01;;;;;;;21.73;18.63;;;27.60;40.80;;;;;;2116998;67;20857;-75
2022/03/22 12:14:48;;;;;;;22.43;19.10;;;27.90;40.90;;;;;;2113079;67;20378;-76
2022/03/22 12:17:45;;;;;;;25.75;19.85;;;28.40;40.60;;;;;;2130346;67;20856;-76
2022/03/22 12:20:27;;;;;;;24.00;19.92;;;28.60;39.40;;;;;;2130554;67;20295;-78
2022/03/22 12:23:09;;;;;;;23.33;19.48;;;28.90;38.50;;;;;;2147758;66;20282;-78
2022/03/22 12:25:54;;;;;;;21.75;18.20;;;28.90;37.70;;;;;;2132230;67;20210;-77
2022/03/22 12:28:35;;;;;;;;;;;29.00;37.60;;;;;;2138492;67;20187;-77
2022/03/22 12:31:21;;;;;;;25.15;20.48;;;29.30;39.70;;;;;;2126877;67;20137;-77
2022/03/22 12:34:03;;;;;;;24.77;19.55;;;29.50;37.60;;;;;;2114719;67;20238;-79
2022/03/22 12:36:52;;;;;;;28.50;19.80;;;29.90;37.00;;;;;;2115790;67;20352;-76
2022/03/22 12:39:37;;;;;;;25.33;19.95;;;30.20;36.70;;;;;;2123788;67;20172;-76
2022/03/22 12:42:24;;;;;;;22.50;20.10;;;30.30;36.30;;;;;;2116981;67;20303;-77
2022/03/22 12:45:12;;;;;;;23.55;19.00;;;30.50;36.30;;;;;;2117556;67;20674;-78
2022/03/22 12:47:56;;;;;;;24.98;20.83;;;30.80;36.10;;;;;;2117007;67;21130;-77
2022/03/22 12:50:40;;;;;;;22.30;19.77;;;31.10;35.70;;;;;;2101629;67;20230;-76
2022/03/22 12:53:22;;;;;;;22.83;19.92;;;31.50;35.50;;;;;;2086483;68;20263;-76
2022/03/22 12:56:16;;;;;;;23.35;20.40;;;31.70;35.20;;;;;;2102814;67;20275;-74
2022/03/22 12:58:58;;;;;;;24.38;20.38;;;32.10;35.80;;;;;;2114554;67;20229;-79
2022/03/22 13:01:44;;;;;;;22.75;20.35;;;32.60;34.80;;;;;;2105561;67;20346;-77
2022/03/22 13:04:46;;;;;;;24.20;20.15;;;32.70;34.30;;;;;;2101372;67;20335;-77
2022/03/22 13:07:28;;;;;;;23.92;20.23;;;32.90;34.90;;;;;;2116588;67;20352;-76
2022/03/22 13:13:20;;;;;;;21.75;19.08;;;33.50;33.50;;;;;;2110857;67;20213;-77
2022/03/22 13:16:05;;;;;;;23.33;20.13;;;34.10;34.00;;;;;;2109074;67;20181;-76
2022/03/22 13:18:54;;;;;;;22.70;19.52;;;34.70;32.70;;;;;;2091800;68;20276;-77
2022/03/22 13:21:40;;;;;;;24.00;19.63;;;35.20;32.60;;;;;;2081002;68;20248;-77
2022/03/22 13:24:24;;;;;;;20.05;17.85;;;35.60;31.50;;;;;;2085158;68;20432;-79
2022/03/22 13:27:07;;;;;;;19.73;17.65;;;35.60;31.10;;;;;;2087653;68;20289;-78
2022/03/22 13:29:49;;;;;;;22.15;19.65;;;35.70;30.70;;;;;;2090387;68;20268;-79
2022/03/22 13:32:33;;;;;;;20.90;18.58;;;36.00;30.70;;;;;;2093894;67;20378;-78
2022/03/22 13:35:19;;;;;;;20.90;18.80;;;35.90;30.00;;;;;;2108544;67;20322;-77
2022/03/22 13:38:08;;;;;;;21.23;18.52;;;35.80;30.30;;;;;;2110829;67;20859;-76
2022/03/22 13:40:57;;;;;;;22.45;19.17;;;35.90;30.00;;;;;;2108482;67;20255;-76
2022/03/22 13:43:50;;;;;;;19.85;17.55;;;35.90;30.00;;;;;;2098774;68;20248;-76
2022/03/22 13:46:36;;;;;;;21.15;17.38;;;36.00;30.40;;;;;;2100031;68;20320;-77
2022/03/22 13:49:32;;;;;;;20.42;17.65;;;36.20;29.90;;;;;;2104184;67;20213;-77
2022/03/22 13:52:25;;;;;;;21.50;19.17;;;36.30;30.00;;;;;;2114575;67;20318;-77
2022/03/22 13:55:21;;;;;;;19.35;17.25;;;36.50;30.30;;;;;;2111798;67;20390;-77
2022/03/22 13:58:17;;;;;;;21.98;17.17;;;36.70;30.20;;;;;;2109733;67;20278;-76
2022/03/22 14:01:00;;;;;;;20.98;17.98;;;36.70;29.90;;;;;;2108811;67;20406;-77
2022/03/22 14:03:43;;;;;;;21.10;18.80;;;36.40;29.40;;;;;;2114030;67;20893;-79
2022/03/22 14:06:32;;;;;;;21.17;18.92;;;36.00;29.30;;;;;;2124256;67;20645;-76
2022/03/22 14:09:16;;;;;;;26.67;21.17;;;35.80;30.00;;;;;;2124765;67;20196;-75
2022/03/22 14:11:58;;;;;;;24.33;20.15;;;35.90;30.00;;;;;;2122342;67;20855;-76
2022/03/22 14:14:41;;;;;;;21.98;19.70;;;36.00;29.80;;;;;;2116951;67;20332;-76
2022/03/22 14:17:25;;;;;;;20.70;17.98;;;36.00;29.70;;;;;;2119767;67;20337;-80
2022/03/22 14:20:17;;;;;;;21.42;17.70;;;36.00;29.90;;;;;;2119400;67;20241;-79
2022/03/22 14:23:00;;;;;;;19.27;17.10;;;36.20;29.90;;;;;;2110534;67;20244;-78
2022/03/22 14:25:44;;;;;;;21.98;18.13;;;35.70;29.70;;;;;;2111201;67;20330;-80
2022/03/22 14:28:26;;;;;;;23.38;18.98;;;35.40;29.90;;;;;;2111518;67;20206;-79
2022/03/22 14:31:14;;;;;;;18.42;16.63;;;35.00;30.10;;;;;;2111623;67;20196;-80
2022/03/22 14:33:57;;;;;;;23.52;17.77;;;34.60;30.10;;;;;;2116409;67;20280;-75
2022/03/22 14:36:39;;;;;;;21.85;17.05;;;34.30;30.50;;;;;;2115273;67;20254;-77
2022/03/22 14:39:21;;;;;;;21.08;17.25;;;34.00;30.60;;;;;;2104118;67;20244;-78
2022/03/22 14:42:03;;;;;;;21.48;17.77;;;33.60;31.20;;;;;;2111576;67;20224;-78
2022/03/22 14:44:47;;;;;;;20.13;17.13;;;33.30;31.00;;;;;;2107395;67;20246;-80
2022/03/22 14:47:34;;;;;;;20.88;16.85;;;33.30;31.10;;;;;;2109567;67;20342;-79